Time;durP1;ratioP1;P1;durP2;ratioP2;P2;SDS_P1;SDS_P2;PMS_P1;PMS_P2;Temp;Humidity;BMP_temperature;BMP_pressure;BME280_temperature;BME280_humidity;BME280_pressure;Samples;Min_cycle;Max_cycle;Signal;HPM_P1;HPM_P2
2023/01/31 00:01:21;;;;;;;0.30;0.30;;;5.10;99.90;;;;;;5073024;28;20604;-89
2023/01/31 00:03:47;;;;;;;12.00;1.53;;;5.10;99.90;;;;;;5073466;28;20184;-89
2023/01/31 00:06:20;;;;;;;0.20;0.20;;;5.10;99.90;;;;;;5038317;28;20220;-88
2023/01/31 00:08:47;;;;;;;0.40;0.40;;;5.10;99.90;;;;;;5072587;28;20251;-88
2023/01/31 00:11:15;;;;;;;5.40;1.07;;;5.10;99.90;;;;;;5054536;28;20240;-87
2023/01/31 00:13:41;;;;;;;7.20;2.07;;;5.20;99.90;;;;;;5054255;28;20220;-88
2023/01/31 00:16:09;;;;;;;1.13;1.03;;;5.20;99.90;;;;;;5054491;28;20209;-89
2023/01/31 00:18:36;;;;;;;0.80;0.77;;;5.10;99.90;;;;;;5054844;28;20703;-89
2023/01/31 00:21:14;;;;;;;0.57;0.57;;;5.20;99.90;;;;;;5038318;28;20213;-89
2023/01/31 00:23:41;;;;;;;0.70;0.67;;;5.20;99.90;;;;;;5054792;28;20296;-91
2023/01/31 00:26:31;;;;;;;1.80;0.53;;;5.30;99.90;;;;;;5072023;28;20805;-92
2023/01/31 00:29:00;;;;;;;0.50;0.50;;;5.30;99.90;;;;;;5044572;28;20205;-90
2023/01/31 00:31:30;;;;;;;0.20;0.20;;;5.40;99.90;;;;;;5055695;28;20172;-92
2023/01/31 00:33:56;;;;;;;1.60;1.37;;;5.40;99.90;;;;;;5040342;28;20189;-93
2023/01/31 00:36:25;;;;;;;1.80;1.70;;;5.40;99.90;;;;;;5054832;28;20229;-87
2023/01/31 00:38:53;;;;;;;0.23;0.23;;;5.50;99.90;;;;;;5073232;28;20221;-89
2023/01/31 00:41:20;;;;;;;2.00;1.27;;;5.50;99.90;;;;;;5073216;28;20246;-87
2023/01/31 00:43:46;;;;;;;0.77;0.77;;;5.50;99.90;;;;;;5039603;28;20233;-88
2023/01/31 00:46:11;;;;;;;1.00;0.93;;;5.60;99.90;;;;;;5022758;28;20216;-86
2023/01/31 00:48:37;;;;;;;0.20;0.20;;;5.60;99.90;;;;;;5056039;28;20188;-87
2023/01/31 00:51:03;;;;;;;1.60;1.60;;;5.60;99.90;;;;;;5055966;28;20228;-87
2023/01/31 00:53:29;;;;;;;0.83;0.80;;;5.60;99.90;;;;;;5022753;28;20213;-86
2023/01/31 00:56:10;;;;;;;1.30;1.20;;;5.60;99.90;;;;;;5022687;28;20248;-87
2023/01/31 00:58:38;;;;;;;2.93;2.70;;;5.60;99.90;;;;;;5072779;28;20205;-86
2023/01/31 01:01:10;;;;;;;0.57;0.57;;;5.60;99.90;;;;;;5039902;28;20286;-88
2023/01/31 01:03:36;;;;;;;0.80;0.80;;;5.60;99.90;;;;;;5055565;28;20228;-88
2023/01/31 01:06:03;;;;;;;1.47;0.60;;;5.60;99.90;;;;;;5055363;28;20228;-88
2023/01/31 01:08:29;;;;;;;0.70;0.70;;;5.60;99.90;;;;;;5038471;28;20244;-87
2023/01/31 01:10:56;;;;;;;0.63;0.63;;;5.60;99.90;;;;;;5038106;28;20205;-87
2023/01/31 01:13:22;;;;;;;1.17;1.17;;;5.60;99.90;;;;;;5054849;28;20174;-90
2023/01/31 01:15:47;;;;;;;0.20;0.20;;;5.60;99.90;;;;;;5054796;28;20212;-87
2023/01/31 01:18:14;;;;;;;4.53;0.60;;;5.60;99.90;;;;;;5072447;28;20213;-88
2023/01/31 01:20:40;;;;;;;3.60;0.50;;;5.60;99.90;;;;;;5039236;28;20546;-87
2023/01/31 01:23:05;;;;;;;2.73;2.40;;;5.60;99.90;;;;;;5055477;28;20224;-87
2023/01/31 01:25:41;;;;;;;1.50;1.40;;;5.60;99.90;;;;;;5055380;28;20217;-87
2023/01/31 01:28:07;;;;;;;10.47;0.93;;;5.70;99.90;;;;;;5055207;28;20184;-85
2023/01/31 01:30:32;;;;;;;0.90;0.90;;;5.70;99.90;;;;;;5055569;28;20178;-87
2023/01/31 01:32:58;;;;;;;1.20;0.97;;;5.70;99.90;;;;;;5021394;28;20217;-90
2023/01/31 01:35:24;;;;;;;0.80;0.43;;;5.80;99.90;;;;;;5037660;28;20225;-89
2023/01/31 01:37:49;;;;;;;5.07;0.90;;;5.80;99.90;;;;;;5021942;28;20225;-87
2023/01/31 01:40:16;;;;;;;0.67;0.50;;;5.80;99.90;;;;;;5039224;28;20239;-86
2023/01/31 01:42:42;;;;;;;0.60;0.60;;;5.80;99.90;;;;;;5039097;28;20284;-86
2023/01/31 01:45:15;;;;;;;3.90;3.00;;;5.80;99.90;;;;;;5038786;28;20217;-87
2023/01/31 01:47:44;;;;;;;0.57;0.57;;;5.80;99.90;;;;;;5038076;28;20213;-87
2023/01/31 01:50:22;;;;;;;1.80;0.63;;;5.90;99.90;;;;;;5054928;28;20228;-89
2023/01/31 01:53:07;;;;;;;2.77;0.70;;;5.90;99.90;;;;;;5072831;28;20204;-87
2023/01/31 01:55:48;;;;;;;3.57;0.50;;;5.90;99.90;;;;;;5071877;28;20213;-86
2023/01/31 01:58:25;;;;;;;22.80;2.13;;;6.00;99.90;;;;;;5072493;28;20260;-86
2023/01/31 02:00:52;;;;;;;0.73;0.73;;;6.00;99.90;;;;;;5073024;28;20221;-86
2023/01/31 02:03:18;;;;;;;4.17;1.70;;;6.10;99.90;;;;;;5038339;28;20342;-87
2023/01/31 02:06:00;;;;;;;12.07;2.23;;;6.10;99.90;;;;;;5055042;28;20639;-88
2023/01/31 02:08:30;;;;;;;1.80;1.03;;;6.10;99.90;;;;;;5072838;28;20237;-88
2023/01/31 02:11:02;;;;;;;0.50;0.47;;;6.10;99.90;;;;;;5055567;28;20209;-87
2023/01/31 02:13:29;;;;;;;0.70;0.70;;;6.00;99.90;;;;;;5072976;28;20705;-87
2023/01/31 02:15:55;;;;;;;0.60;0.50;;;6.00;99.90;;;;;;5055879;28;20745;-87
2023/01/31 02:18:23;;;;;;;1.83;1.73;;;6.00;99.90;;;;;;5073063;28;20225;-88
2023/01/31 02:21:23;;;;;;;1.13;1.13;;;5.90;99.90;;;;;;5055382;28;20213;-86
2023/01/31 02:24:10;;;;;;;1.40;1.33;;;5.90;99.90;;;;;;5072533;28;20678;-92
2023/01/31 02:27:13;;;;;;;6.00;0.87;;;5.90;99.90;;;;;;5055378;28;20224;-87
2023/01/31 02:30:06;;;;;;;9.13;2.37;;;5.90;99.90;;;;;;5055086;28;20221;-87
2023/01/31 02:32:38;;;;;;;0.50;0.50;;;6.00;99.90;;;;;;5054015;28;20349;-90
2023/01/31 02:35:34;;;;;;;0.83;0.70;;;6.00;99.90;;;;;;5054954;28;20236;-86
2023/01/31 02:38:26;;;;;;;0.57;0.57;;;5.90;99.90;;;;;;5055351;28;20236;-87
2023/01/31 02:41:04;;;;;;;0.77;0.77;;;6.00;99.90;;;;;;5055256;28;20205;-88
2023/01/31 02:46:59;;;;;;;1.00;0.80;;;6.00;99.90;;;;;;4971831;28;20244;-91
2023/01/31 02:49:36;;;;;;;2.53;1.30;;;6.00;99.90;;;;;;4955725;28;20188;-87
2023/01/31 02:52:27;;;;;;;0.97;0.90;;;6.00;99.90;;;;;;5032716;28;20191;-88
2023/01/31 02:57:47;;;;;;;2.03;1.53;;;6.00;99.90;;;;;;5072894;28;20205;-87
2023/01/31 03:00:13;;;;;;;1.23;1.13;;;6.00;99.90;;;;;;5057237;28;20237;-86
2023/01/31 03:02:39;;;;;;;0.20;0.20;;;6.10;99.90;;;;;;5074124;28;20270;-89
2023/01/31 03:05:06;;;;;;;0.63;0.63;;;6.10;99.90;;;;;;5025920;28;20213;-86
2023/01/31 03:07:35;;;;;;;0.60;0.60;;;6.10;99.90;;;;;;5041824;28;20213;-86
2023/01/31 03:10:27;;;;;;;0.77;0.77;;;6.10;99.90;;;;;;5059327;28;20188;-87
2023/01/31 03:13:08;;;;;;;9.17;1.87;;;6.20;99.90;;;;;;5058965;28;20189;-87
2023/01/31 03:19:12;;;;;;;0.60;0.60;;;6.20;99.90;;;;;;5076529;28;20283;-88
2023/01/31 03:21:52;;;;;;;3.90;1.60;;;6.20;99.90;;;;;;5058971;28;20193;-90
2023/01/31 03:24:20;;;;;;;5.17;0.97;;;6.20;99.90;;;;;;5058841;28;20205;-87
2023/01/31 03:26:46;;;;;;;1.40;0.87;;;6.30;99.90;;;;;;5058317;28;20224;-88
2023/01/31 03:29:16;;;;;;;1.27;1.17;;;6.30;99.90;;;;;;5025544;28;20216;-87
2023/01/31 03:31:49;;;;;;;4.30;1.50;;;6.30;99.90;;;;;;5058838;28;20217;-87
2023/01/31 03:34:16;;;;;;;0.53;0.53;;;6.40;99.90;;;;;;5058596;28;20166;-88
2023/01/31 03:36:59;;;;;;;1.20;1.10;;;6.40;99.90;;;;;;5042185;28;20653;-87
2023/01/31 03:39:38;;;;;;;0.60;0.60;;;6.40;99.90;;;;;;5075507;28;20247;-87
2023/01/31 03:42:08;;;;;;;0.80;0.80;;;6.50;99.90;;;;;;5058070;28;20720;-87
2023/01/31 03:45:01;;;;;;;0.57;0.57;;;6.40;99.90;;;;;;5057769;28;20217;-87
2023/01/31 03:47:40;;;;;;;3.27;1.83;;;6.50;99.90;;;;;;5057791;28;20209;-86
2023/01/31 03:50:12;;;;;;;1.60;0.97;;;6.50;99.90;;;;;;5075038;28;20216;-87
2023/01/31 03:52:42;;;;;;;0.47;0.47;;;6.60;99.90;;;;;;5057575;28;20690;-87
2023/01/31 03:55:17;;;;;;;12.20;1.80;;;6.60;99.90;;;;;;5057319;28;20216;-88
2023/01/31 03:57:46;;;;;;;1.07;1.07;;;6.60;99.90;;;;;;5058029;28;20180;-86
2023/01/31 04:00:15;;;;;;;1.80;1.67;;;6.60;99.90;;;;;;5057470;28;20713;-87
2023/01/31 04:02:42;;;;;;;1.60;1.07;;;6.60;99.90;;;;;;5058090;28;20236;-87
2023/01/31 04:05:21;;;;;;;3.03;1.30;;;6.60;99.90;;;;;;5040776;28;20562;-86
2023/01/31 04:07:47;;;;;;;1.13;1.13;;;6.60;99.90;;;;;;5057603;28;20213;-87
2023/01/31 04:10:18;;;;;;;6.13;1.17;;;6.70;99.90;;;;;;5056758;28;20178;-88
2023/01/31 04:12:45;;;;;;;1.57;1.47;;;6.70;99.90;;;;;;5056683;28;20178;-88
2023/01/31 04:15:11;;;;;;;1.07;0.97;;;6.70;99.90;;;;;;5039881;28;20615;-86
2023/01/31 04:17:37;;;;;;;4.67;1.87;;;6.70;99.90;;;;;;5040579;28;20218;-86
2023/01/31 04:20:05;;;;;;;2.00;1.50;;;6.70;99.90;;;;;;5074974;28;20237;-88
2023/01/31 04:22:31;;;;;;;5.40;1.43;;;6.70;99.90;;;;;;5040744;28;20213;-87
2023/01/31 04:24:57;;;;;;;0.63;0.63;;;6.70;99.90;;;;;;5024854;28;20177;-87
2023/01/31 04:27:23;;;;;;;0.33;0.33;;;6.70;99.90;;;;;;5074523;28;20569;-90
2023/01/31 04:29:48;;;;;;;1.87;1.53;;;6.70;99.90;;;;;;5039579;28;20299;-87
2023/01/31 04:32:14;;;;;;;8.33;2.67;;;6.70;99.90;;;;;;5039945;28;20229;-88
2023/01/31 04:34:40;;;;;;;9.10;1.37;;;6.70;99.90;;;;;;5023977;28;20233;-87
2023/01/31 04:37:06;;;;;;;0.57;0.57;;;6.70;99.90;;;;;;5041143;28;20178;-87
2023/01/31 04:39:32;;;;;;;2.37;1.33;;;6.70;99.90;;;;;;5040604;28;20209;-90
2023/01/31 04:41:57;;;;;;;1.23;1.10;;;6.70;99.90;;;;;;5057119;28;20217;-87
2023/01/31 04:44:23;;;;;;;2.03;1.83;;;6.70;99.90;;;;;;5056576;28;20217;-88
2023/01/31 04:46:49;;;;;;;2.87;1.00;;;6.70;99.90;;;;;;5040852;28;20209;-87
2023/01/31 04:49:15;;;;;;;2.27;0.70;;;6.60;99.90;;;;;;5040733;28;20205;-88
2023/01/31 04:51:40;;;;;;;4.83;1.70;;;6.70;99.90;;;;;;5057286;28;20647;-87
2023/01/31 04:54:06;;;;;;;5.30;2.83;;;6.70;99.90;;;;;;5022745;28;20213;-87
2023/01/31 04:56:32;;;;;;;5.63;1.17;;;6.70;99.90;;;;;;5023267;28;20260;-86
2023/01/31 04:58:58;;;;;;;0.23;0.23;;;6.70;99.90;;;;;;5055923;28;20260;-86
2023/01/31 05:01:25;;;;;;;1.90;0.40;;;6.60;99.90;;;;;;5039032;28;20690;-87
2023/01/31 05:03:51;;;;;;;2.37;0.80;;;6.70;99.90;;;;;;5022818;28;20205;-89
2023/01/31 05:06:17;;;;;;;4.73;2.07;;;6.70;99.90;;;;;;5039406;28;20229;-87
2023/01/31 05:08:43;;;;;;;0.30;0.30;;;6.70;99.90;;;;;;5055677;28;20232;-88
2023/01/31 05:11:09;;;;;;;2.23;0.97;;;6.70;99.90;;;;;;5022012;28;20311;-88
2023/01/31 05:13:38;;;;;;;3.50;1.40;;;6.70;99.90;;;;;;5055258;28;20216;-92
2023/01/31 05:16:08;;;;;;;5.43;1.17;;;6.70;99.90;;;;;;5038989;28;20205;-86
2023/01/31 05:18:34;;;;;;;2.63;1.97;;;6.80;99.90;;;;;;5054265;28;20342;-91
2023/01/31 05:21:01;;;;;;;0.37;0.37;;;6.80;99.90;;;;;;5072511;28;20220;-86
2023/01/31 05:23:27;;;;;;;1.33;1.23;;;6.80;99.90;;;;;;5055457;28;20213;-85
2023/01/31 05:25:53;;;;;;;0.67;0.67;;;6.80;99.90;;;;;;5055186;28;20221;-86
2023/01/31 05:28:19;;;;;;;1.70;1.30;;;6.80;99.90;;;;;;5037725;28;20181;-91
2023/01/31 05:30:45;;;;;;;1.60;1.50;;;6.90;99.90;;;;;;5039218;28;20177;-87
2023/01/31 05:33:11;;;;;;;0.37;0.37;;;6.90;99.90;;;;;;5055222;28;20209;-87
2023/01/31 05:35:38;;;;;;;0.40;0.33;;;6.90;99.90;;;;;;5055475;28;20315;-89
2023/01/31 05:38:04;;;;;;;3.73;2.73;;;6.90;99.90;;;;;;5055802;28;20225;-88
2023/01/31 05:40:30;;;;;;;14.83;1.83;;;6.90;99.90;;;;;;5038486;28;20320;-90
2023/01/31 05:42:59;;;;;;;1.27;1.23;;;6.90;99.90;;;;;;5073422;28;20253;-88
2023/01/31 05:45:25;;;;;;;4.37;1.40;;;6.90;99.90;;;;;;5072448;28;20245;-87
2023/01/31 05:47:51;;;;;;;3.13;1.03;;;6.90;99.90;;;;;;5036047;28;20722;-89
2023/01/31 05:50:18;;;;;;;0.40;0.40;;;6.90;99.90;;;;;;5036390;28;20278;-87
2023/01/31 05:52:52;;;;;;;1.33;0.53;;;6.90;99.90;;;;;;5020121;28;20205;-87
2023/01/31 05:55:18;;;;;;;10.53;2.60;;;6.90;99.90;;;;;;5052662;28;20196;-88
2023/01/31 05:57:44;;;;;;;6.13;0.83;;;6.90;99.90;;;;;;5037242;28;20182;-86
2023/01/31 06:00:11;;;;;;;0.97;0.97;;;7.00;99.90;;;;;;5019835;28;20240;-88
2023/01/31 06:02:36;;;;;;;5.87;1.13;;;7.00;99.90;;;;;;5034596;28;20303;-88
2023/01/31 06:05:02;;;;;;;1.43;0.70;;;7.00;99.90;;;;;;5019960;28;20762;-88
2023/01/31 06:07:28;;;;;;;2.73;1.50;;;7.00;99.90;;;;;;5019700;28;20565;-89
2023/01/31 06:09:54;;;;;;;6.13;0.93;;;7.00;99.90;;;;;;5052997;28;20177;-89
2023/01/31 06:12:19;;;;;;;0.30;0.30;;;7.00;99.90;;;;;;5052457;28;20226;-90
2023/01/31 06:14:45;;;;;;;2.47;0.90;;;7.00;99.90;;;;;;5035419;28;20755;-91
2023/01/31 06:17:11;;;;;;;1.50;1.37;;;6.90;99.90;;;;;;5019030;28;20228;-90
2023/01/31 06:19:37;;;;;;;2.00;1.87;;;6.90;99.90;;;;;;5027774;28;20667;-90
2023/01/31 06:22:06;;;;;;;1.63;1.23;;;6.90;99.90;;;;;;5019832;28;20177;-91
2023/01/31 06:24:32;;;;;;;7.47;2.03;;;6.80;99.90;;;;;;5052447;28;20251;-90
2023/01/31 06:26:57;;;;;;;2.23;0.87;;;6.80;99.90;;;;;;5036000;28;20243;-90
2023/01/31 06:29:23;;;;;;;5.57;0.60;;;6.80;99.90;;;;;;5072664;28;20277;-90
2023/01/31 06:31:49;;;;;;;0.70;0.70;;;6.70;99.90;;;;;;5035275;28;20283;-90
2023/01/31 06:34:15;;;;;;;0.60;0.40;;;6.70;99.90;;;;;;5052679;28;20383;-90
2023/01/31 06:36:40;;;;;;;7.57;1.13;;;6.70;99.90;;;;;;5049257;28;20225;-89
2023/01/31 06:39:06;;;;;;;0.73;0.73;;;6.70;99.90;;;;;;5022696;28;20209;-90
2023/01/31 06:41:32;;;;;;;3.30;0.60;;;6.70;99.90;;;;;;5022636;28;20212;-91
2023/01/31 06:43:58;;;;;;;2.47;1.27;;;6.70;99.90;;;;;;5056015;28;20290;-91
2023/01/31 06:46:23;;;;;;;1.80;1.70;;;6.70;99.90;;;;;;5039005;28;20185;-91
2023/01/31 06:48:49;;;;;;;1.53;0.80;;;6.70;99.90;;;;;;5055822;28;20641;-91
2023/01/31 06:51:15;;;;;;;2.23;1.37;;;6.70;99.90;;;;;;5023120;28;20295;-90
2023/01/31 06:53:41;;;;;;;0.87;0.87;;;6.70;99.90;;;;;;5039002;28;20245;-89
2023/01/31 06:56:08;;;;;;;1.03;0.87;;;6.70;99.90;;;;;;5038904;28;20256;-91
2023/01/31 06:58:34;;;;;;;0.50;0.50;;;6.70;99.90;;;;;;5055277;28;20216;-90
2023/01/31 07:01:04;;;;;;;1.50;1.27;;;6.70;99.90;;;;;;5038951;28;20224;-89
2023/01/31 07:03:30;;;;;;;0.43;0.30;;;6.70;99.90;;;;;;5055405;28;20236;-91
2023/01/31 07:05:56;;;;;;;0.30;0.30;;;6.70;99.90;;;;;;5022018;28;20220;-88
2023/01/31 07:08:22;;;;;;;1.07;1.07;;;6.70;99.90;;;;;;5039154;28;20213;-91
2023/01/31 07:10:48;;;;;;;0.30;0.30;;;6.70;99.90;;;;;;5039002;28;20209;-89
2023/01/31 07:13:14;;;;;;;2.27;1.30;;;6.70;99.90;;;;;;5055717;28;20184;-91
2023/01/31 07:15:40;;;;;;;2.73;1.17;;;6.70;99.90;;;;;;5039385;28;20212;-91
2023/01/31 07:18:06;;;;;;;5.70;1.40;;;6.70;99.90;;;;;;5055693;28;20240;-89
2023/01/31 07:20:32;;;;;;;5.50;1.30;;;6.70;99.90;;;;;;5054744;28;20213;-88
2023/01/31 07:22:58;;;;;;;1.17;1.13;;;6.80;99.90;;;;;;5055519;28;20213;-91
2023/01/31 07:25:26;;;;;;;1.27;1.17;;;6.70;99.90;;;;;;5039197;28;20712;-90
2023/01/31 07:27:51;;;;;;;10.77;1.33;;;6.80;99.90;;;;;;5039447;28;20183;-89
2023/01/31 07:30:18;;;;;;;0.40;0.40;;;6.70;99.90;;;;;;5022327;28;20217;-90
2023/01/31 07:32:44;;;;;;;1.90;1.07;;;6.80;99.90;;;;;;5056878;28;20228;-91
2023/01/31 07:35:10;;;;;;;0.77;0.77;;;6.80;99.90;;;;;;5040841;28;20221;-89
2023/01/31 07:37:37;;;;;;;3.57;2.27;;;6.80;99.90;;;;;;5039375;28;20601;-89
2023/01/31 07:40:04;;;;;;;0.53;0.53;;;6.90;99.90;;;;;;5039605;28;20174;-91
2023/01/31 07:42:30;;;;;;;0.40;0.40;;;6.90;99.90;;;;;;5054903;28;20308;-90
2023/01/31 07:44:55;;;;;;;7.40;1.40;;;6.90;99.90;;;;;;5072676;28;20245;-91
2023/01/31 07:47:21;;;;;;;2.70;0.50;;;6.90;99.90;;;;;;5038368;28;20221;-89
2023/01/31 07:49:49;;;;;;;12.83;0.50;;;6.90;99.90;;;;;;5022165;28;20229;-88
2023/01/31 07:52:15;;;;;;;11.63;1.40;;;7.00;99.90;;;;;;5038504;28;20650;-88
2023/01/31 07:54:41;;;;;;;1.30;1.00;;;7.00;99.90;;;;;;5021979;28;20358;-89
2023/01/31 07:57:06;;;;;;;1.33;1.23;;;7.00;99.90;;;;;;5038087;28;20731;-90
2023/01/31 07:59:32;;;;;;;3.10;1.27;;;7.00;99.90;;;;;;5037778;28;20604;-88
2023/01/31 08:04:42;;;;;;;0.83;0.50;;;7.00;99.90;;;;;;5056802;28;20274;-91
2023/01/31 08:07:09;;;;;;;2.03;1.57;;;7.00;99.90;;;;;;5021133;28;20619;-88
2023/01/31 08:09:35;;;;;;;1.40;0.50;;;7.10;99.90;;;;;;5022239;28;20186;-89
2023/01/31 08:12:00;;;;;;;2.57;1.60;;;7.10;99.90;;;;;;5021319;28;20217;-88
2023/01/31 08:14:27;;;;;;;0.67;0.67;;;7.10;99.90;;;;;;5053822;28;20205;-90
2023/01/31 08:16:54;;;;;;;4.90;1.00;;;7.10;99.90;;;;;;5053636;28;20217;-90
2023/01/31 08:19:21;;;;;;;2.97;1.13;;;7.10;99.90;;;;;;5054383;28;20739;-87
2023/01/31 08:21:47;;;;;;;11.73;1.33;;;7.20;99.90;;;;;;5055092;28;20189;-90
2023/01/31 08:24:12;;;;;;;1.87;1.70;;;7.20;99.90;;;;;;5054744;28;20213;-89
2023/01/31 08:26:40;;;;;;;6.33;1.43;;;7.20;99.90;;;;;;5054482;28;20218;-90
2023/01/31 08:29:06;;;;;;;0.50;0.50;;;7.20;99.90;;;;;;5054575;28;20213;-87
2023/01/31 08:31:31;;;;;;;5.67;5.13;;;7.20;99.90;;;;;;5055134;28;20212;-87
2023/01/31 08:33:58;;;;;;;0.30;0.30;;;7.30;99.90;;;;;;5022753;28;20178;-90
2023/01/31 08:36:30;;;;;;;7.60;0.77;;;7.30;99.90;;;;;;5055042;28;20350;-88
2023/01/31 08:38:57;;;;;;;0.33;0.30;;;7.30;99.90;;;;;;5054632;28;20217;-87
2023/01/31 08:41:24;;;;;;;2.33;0.97;;;7.30;99.90;;;;;;5053962;28;20308;-89
2023/01/31 08:43:50;;;;;;;0.93;0.93;;;7.40;99.90;;;;;;5071717;28;20217;-88
2023/01/31 08:46:16;;;;;;;5.40;0.77;;;7.30;99.90;;;;;;5054232;28;20250;-89
2023/01/31 08:48:42;;;;;;;4.67;0.67;;;7.40;99.90;;;;;;5069353;28;20165;-87
2023/01/31 08:51:11;;;;;;;16.73;1.27;;;7.40;99.90;;;;;;5081343;28;20270;-87
2023/01/31 08:53:38;;;;;;;5.03;1.27;;;7.40;99.90;;;;;;5054016;28;20213;-87
2023/01/31 08:56:08;;;;;;;5.50;1.70;;;7.50;99.90;;;;;;5071808;28;20290;-87
2023/01/31 08:58:36;;;;;;;1.33;1.33;;;7.50;99.90;;;;;;5053669;28;20208;-87
2023/01/31 09:01:06;;;;;;;0.63;0.63;;;7.50;99.90;;;;;;5071937;28;20225;-88
2023/01/31 09:03:32;;;;;;;0.60;0.60;;;7.50;99.90;;;;;;5038267;28;20208;-88
2023/01/31 09:06:02;;;;;;;3.00;2.20;;;7.50;99.90;;;;;;5071410;28;20213;-87
2023/01/31 09:08:29;;;;;;;1.73;1.63;;;7.50;99.90;;;;;;5037218;28;20586;-90
2023/01/31 09:10:56;;;;;;;14.07;1.13;;;7.50;99.90;;;;;;5037145;28;20662;-88
2023/01/31 09:13:22;;;;;;;1.03;1.03;;;7.50;99.90;;;;;;5037845;28;20231;-86
2023/01/31 09:16:06;;;;;;;0.40;0.40;;;7.50;99.90;;;;;;5021459;28;20292;-86
2023/01/31 09:18:36;;;;;;;0.20;0.20;;;7.50;99.90;;;;;;5053565;28;20394;-85
2023/01/31 09:21:19;;;;;;;6.33;1.30;;;7.50;99.90;;;;;;5053375;28;20219;-87
2023/01/31 09:23:47;;;;;;;1.40;0.97;;;7.60;99.90;;;;;;5053433;28;20229;-88
2023/01/31 09:26:14;;;;;;;0.40;0.40;;;7.50;99.90;;;;;;5071256;28;20422;-85
2023/01/31 09:28:44;;;;;;;1.33;1.23;;;7.50;99.90;;;;;;5053406;28;20286;-86
2023/01/31 09:31:13;;;;;;;5.50;1.33;;;7.50;99.90;;;;;;5071256;28;20231;-85
2023/01/31 09:33:39;;;;;;;5.40;0.50;;;7.50;99.90;;;;;;5053844;28;20177;-85
2023/01/31 09:36:07;;;;;;;2.60;0.60;;;7.50;99.90;;;;;;5036631;28;20578;-88
2023/01/31 09:38:34;;;;;;;6.30;1.00;;;7.50;99.90;;;;;;5053644;28;20221;-86
2023/01/31 09:41:03;;;;;;;10.57;1.60;;;7.50;99.90;;;;;;5053730;28;20568;-86
2023/01/31 09:43:39;;;;;;;0.33;0.27;;;7.50;99.90;;;;;;5053356;28;20235;-88
2023/01/31 09:46:11;;;;;;;8.93;2.00;;;7.50;99.90;;;;;;5054316;28;20180;-90
2023/01/31 09:48:41;;;;;;;3.33;1.23;;;7.50;99.90;;;;;;5053619;28;20685;-86
2023/01/31 09:51:11;;;;;;;2.97;0.93;;;7.50;99.90;;;;;;5049377;28;20213;-89
2023/01/31 09:53:40;;;;;;;0.57;0.57;;;7.40;99.90;;;;;;5070828;28;20241;-90
2023/01/31 09:56:09;;;;;;;0.53;0.53;;;7.40;99.90;;;;;;5053128;28;20320;-89
2023/01/31 09:58:49;;;;;;;0.97;0.73;;;7.50;99.90;;;;;;5052932;28;20205;-88
2023/01/31 10:01:15;;;;;;;8.03;0.70;;;7.50;99.90;;;;;;5052883;28;20225;-89
2023/01/31 10:04:15;;;;;;;1.23;1.00;;;7.50;99.90;;;;;;5053454;28;20249;-91
2023/01/31 10:06:44;;;;;;;0.60;0.60;;;7.50;99.90;;;;;;5032152;28;20220;-84
2023/01/31 10:09:32;;;;;;;11.63;3.20;;;7.60;99.90;;;;;;5069786;28;20205;-90
2023/01/31 10:12:04;;;;;;;6.70;1.80;;;7.60;99.90;;;;;;5052177;28;20220;-87
2023/01/31 10:14:46;;;;;;;7.23;1.20;;;7.60;99.90;;;;;;5052052;28;20634;-88
2023/01/31 10:17:37;;;;;;;2.40;1.67;;;7.50;99.90;;;;;;5070475;28;20216;-88
2023/01/31 10:20:32;;;;;;;1.90;0.40;;;7.60;99.90;;;;;;5051909;28;20220;-87
2023/01/31 10:23:11;;;;;;;0.93;0.93;;;7.60;99.90;;;;;;5051511;28;20212;-85
2023/01/31 10:25:52;;;;;;;14.03;1.30;;;7.60;99.90;;;;;;5070157;28;20232;-85
2023/01/31 10:28:36;;;;;;;10.97;1.57;;;7.70;99.90;;;;;;5052527;28;20178;-85
2023/01/31 10:31:10;;;;;;;4.97;1.17;;;7.70;99.90;;;;;;5052886;28;20196;-83
2023/01/31 10:34:04;;;;;;;4.03;1.40;;;7.70;99.90;;;;;;5052144;28;20237;-85
2023/01/31 10:36:41;;;;;;;7.93;2.00;;;7.80;99.90;;;;;;5051642;28;20299;-86
2023/01/31 10:39:29;;;;;;;11.40;0.97;;;7.80;99.90;;;;;;5051900;28;20224;-85
2023/01/31 10:42:27;;;;;;;1.03;1.03;;;7.80;99.90;;;;;;5069590;28;20213;-86
2023/01/31 10:45:00;;;;;;;0.30;0.30;;;7.90;99.90;;;;;;5051818;28;20299;-85
2023/01/31 10:47:43;;;;;;;3.20;0.60;;;7.90;99.90;;;;;;5052407;28;20217;-85
2023/01/31 10:50:17;;;;;;;12.07;0.93;;;8.00;99.90;;;;;;5069984;28;20221;-86
2023/01/31 10:52:56;;;;;;;0.80;0.80;;;8.00;99.90;;;;;;5051956;28;20266;-88
2023/01/31 10:55:24;;;;;;;1.33;0.60;;;8.10;99.90;;;;;;5052017;28;20203;-88
2023/01/31 10:57:51;;;;;;;0.80;0.60;;;8.10;99.90;;;;;;5052802;28;20185;-89
2023/01/31 11:00:25;;;;;;;1.60;1.57;;;8.10;99.90;;;;;;5051966;28;20237;-87
2023/01/31 11:02:51;;;;;;;10.80;1.50;;;8.10;99.90;;;;;;5063385;28;20281;-88
2023/01/31 11:05:23;;;;;;;15.57;1.40;;;8.10;99.90;;;;;;5044940;28;20308;-88
2023/01/31 11:07:49;;;;;;;0.40;0.40;;;8.20;99.90;;;;;;5069575;28;20206;-85
2023/01/31 11:10:21;;;;;;;4.57;1.03;;;8.20;99.90;;;;;;5051006;28;20181;-86
2023/01/31 11:13:00;;;;;;;2.67;1.87;;;8.20;99.90;;;;;;5051744;28;20281;-87
2023/01/31 11:15:33;;;;;;;1.07;0.40;;;8.20;99.90;;;;;;5050483;28;20225;-88
2023/01/31 11:18:00;;;;;;;12.53;1.27;;;8.20;99.90;;;;;;5050724;28;20278;-85
2023/01/31 11:20:35;;;;;;;1.33;1.23;;;8.30;99.90;;;;;;5035346;28;20284;-87
2023/01/31 11:23:04;;;;;;;17.47;4.40;;;8.30;99.90;;;;;;5071947;28;20213;-87
2023/01/31 11:25:32;;;;;;;2.37;2.00;;;8.50;99.90;;;;;;5054764;28;20232;-88
2023/01/31 11:28:15;;;;;;;2.37;0.90;;;8.60;99.90;;;;;;5055963;28;20258;-87
2023/01/31 11:30:41;;;;;;;0.87;0.47;;;8.70;99.90;;;;;;5072779;28;20212;-86
2023/01/31 11:33:26;;;;;;;0.60;0.60;;;8.80;99.90;;;;;;5054459;28;20213;-88
2023/01/31 11:35:52;;;;;;;2.00;1.20;;;8.80;99.90;;;;;;5054794;28;20763;-84
2023/01/31 11:38:25;;;;;;;9.83;0.60;;;8.80;99.90;;;;;;5038219;28;20255;-88
2023/01/31 11:40:51;;;;;;;4.90;2.53;;;8.80;99.90;;;;;;5072195;28;20229;-85
2023/01/31 11:43:24;;;;;;;1.07;1.07;;;8.90;99.90;;;;;;5037544;28;20239;-88
2023/01/31 11:45:59;;;;;;;5.37;0.63;;;8.90;99.90;;;;;;5054930;28;20441;-87
2023/01/31 11:48:38;;;;;;;3.87;1.27;;;8.90;99.90;;;;;;5071532;28;20221;-85
2023/01/31 11:51:04;;;;;;;0.63;0.63;;;9.00;99.90;;;;;;5071691;28;20216;-85
2023/01/31 11:53:38;;;;;;;0.97;0.57;;;9.10;99.90;;;;;;5037110;28;20209;-88
2023/01/31 11:56:12;;;;;;;0.40;0.40;;;9.00;99.90;;;;;;5071608;28;20714;-86
2023/01/31 11:58:40;;;;;;;4.43;1.87;;;9.00;99.90;;;;;;5071978;28;20681;-84
2023/01/31 12:01:26;;;;;;;2.93;2.37;;;9.00;99.90;;;;;;5072694;28;20237;-87
2023/01/31 12:04:05;;;;;;;3.37;1.70;;;9.00;99.90;;;;;;5050999;28;20309;-88
2023/01/31 12:06:39;;;;;;;2.27;0.50;;;9.10;99.90;;;;;;5072486;28;20240;-86
2023/01/31 12:09:22;;;;;;;2.07;1.77;;;9.10;99.90;;;;;;5072263;28;20230;-86
2023/01/31 12:11:57;;;;;;;4.87;0.87;;;9.30;99.90;;;;;;5054885;28;20213;-87
2023/01/31 12:14:34;;;;;;;1.47;0.60;;;9.20;99.90;;;;;;5054763;28;20221;-84
2023/01/31 12:17:00;;;;;;;1.37;0.83;;;9.20;99.90;;;;;;5054268;28;20217;-89
2023/01/31 12:19:49;;;;;;;5.70;0.40;;;9.30;99.90;;;;;;5038106;28;20188;-86
2023/01/31 12:22:26;;;;;;;6.07;1.43;;;9.30;99.90;;;;;;5054212;28;20188;-85
2023/01/31 12:25:16;;;;;;;2.40;1.27;;;9.30;99.90;;;;;;5055249;28;20169;-86
2023/01/31 12:27:55;;;;;;;1.33;1.00;;;9.30;99.90;;;;;;5054489;28;20221;-89
2023/01/31 12:30:26;;;;;;;1.80;0.97;;;9.40;99.90;;;;;;5072042;28;20216;-86
2023/01/31 12:33:25;;;;;;;4.80;1.30;;;9.40;99.90;;;;;;5071030;28;20224;-88
2023/01/31 12:36:25;;;;;;;5.77;1.77;;;9.40;99.90;;;;;;5046597;28;20307;-88
2023/01/31 12:39:28;;;;;;;10.73;1.00;;;9.40;99.90;;;;;;5071967;28;20585;-88
2023/01/31 12:42:03;;;;;;;2.87;1.77;;;9.30;99.90;;;;;;5003730;28;20681;-88
2023/01/31 12:45:09;;;;;;;2.07;0.70;;;9.20;99.90;;;;;;5053860;28;20270;-89
2023/01/31 12:47:40;;;;;;;3.70;0.83;;;9.20;99.90;;;;;;5035954;28;20217;-87
2023/01/31 12:50:18;;;;;;;0.40;0.40;;;9.10;99.90;;;;;;5071553;28;20300;-87
2023/01/31 12:53:15;;;;;;;2.00;1.83;;;9.10;99.90;;;;;;5071437;28;20213;-88
2023/01/31 12:55:59;;;;;;;0.80;0.77;;;9.00;99.90;;;;;;5053985;28;20231;-88
2023/01/31 12:58:40;;;;;;;1.40;1.30;;;9.00;99.90;;;;;;5053655;28;20606;-87
2023/01/31 13:01:26;;;;;;;0.33;0.33;;;9.10;99.90;;;;;;5071691;28;20225;-88
2023/01/31 13:04:29;;;;;;;0.70;0.70;;;9.00;99.90;;;;;;5054407;28;20300;-88
2023/01/31 13:07:03;;;;;;;0.40;0.40;;;9.00;99.90;;;;;;5054639;28;20205;-88
2023/01/31 13:09:34;;;;;;;2.60;1.40;;;9.00;99.90;;;;;;5054083;28;20309;-87
2023/01/31 13:12:08;;;;;;;7.50;0.83;;;9.10;99.90;;;;;;5053453;28;20217;-88
2023/01/31 13:15:11;;;;;;;0.57;0.57;;;9.10;99.90;;;;;;5053420;28;20215;-88
2023/01/31 13:17:39;;;;;;;3.37;1.20;;;9.20;99.90;;;;;;5001529;28;20296;-87
2023/01/31 13:20:11;;;;;;;0.87;0.67;;;9.10;99.90;;;;;;5072086;28;20201;-88
2023/01/31 13:22:48;;;;;;;1.33;0.83;;;9.10;99.90;;;;;;5055475;28;20366;-89
2023/01/31 13:25:14;;;;;;;7.47;0.57;;;9.10;99.90;;;;;;5053458;28;20192;-88
2023/01/31 13:27:46;;;;;;;0.17;0.17;;;9.20;99.90;;;;;;5071459;28;20623;-88
2023/01/31 13:30:41;;;;;;;0.60;0.60;;;9.20;99.90;;;;;;5053104;28;20274;-88